Time;durP1;ratioP1;P1;durP2;ratioP2;P2;SDS_P1;SDS_P2;PMS_P1;PMS_P2;Temp;Humidity;BMP_temperature;BMP_pressure;BME280_temperature;BME280_humidity;BME280_pressure;Samples;Min_cycle;Max_cycle;Signal;HPM_P1;HPM_P2
2022/06/06 00:02:22;;;;;;;;;;;;;;;14.64;83.18;101286.78;5041160;28;19920;-76
2022/06/06 00:04:48;;;;;;;;;;;;;;;14.63;83.08;101290.31;5042125;28;19916;-75
2022/06/06 00:07:13;;;;;;;;;;;;;;;14.62;83.01;101287.72;5041211;28;20287;-76
2022/06/06 00:09:38;;;;;;;;;;;;;;;14.62;82.92;101278.13;5044037;28;20378;-75
2022/06/06 00:12:04;;;;;;;;;;;;;;;14.62;82.94;101275.50;5040755;28;19913;-76
2022/06/06 00:14:31;;;;;;;;;;;;;;;14.61;82.95;101284.28;5047517;28;19924;-76
2022/06/06 00:16:56;;;;;;;;;;;;;;;14.59;82.81;101278.22;5045397;28;19974;-76
2022/06/06 00:19:21;;;;;;;;;;;;;;;14.59;82.74;101280.84;5046360;28;21563;-76
2022/06/06 00:21:47;;;;;;;;;;;;;;;14.59;82.84;101283.47;5043932;28;20372;-76
2022/06/06 00:24:13;;;;;;;;;;;;;;;14.58;82.89;101279.13;5043766;28;19921;-75
2022/06/06 00:26:38;;;;;;;;;;;;;;;14.60;82.81;101281.72;5046004;28;20340;-76
2022/06/06 00:29:04;;;;;;;;;;;;;;;14.59;82.75;101277.41;5044074;28;19928;-76
2022/06/06 00:36:59;;;;;;;;;;;;;;;14.58;82.71;101276.53;5048039;28;19919;-76
2022/06/06 00:39:24;;;;;;;;;;;;;;;14.57;82.77;101273.06;5045441;28;19920;-76
2022/06/06 00:41:51;;;;;;;;;;;;;;;14.58;82.72;101284.38;5043539;28;20363;-76
2022/06/06 00:44:18;;;;;;;;;;;;;;;14.58;82.72;101276.53;5043177;28;20357;-76
2022/06/06 00:46:52;;;;;;;;;;;;;;;14.56;82.74;101268.72;5042928;28;19921;-76
2022/06/06 00:49:22;;;;;;;;;;;;;;;14.55;82.87;101274.88;5043924;28;19919;-76
2022/06/06 00:51:48;;;;;;;;;;;;;;;14.54;82.90;101267.94;5040511;28;19920;-76
2022/06/06 00:54:13;;;;;;;;;;;;;;;14.54;82.91;101267.94;5040340;28;19923;-76
2022/06/06 00:56:46;;;;;;;;;;;;;;;14.54;82.98;101272.28;5045541;28;19913;-76
2022/06/06 00:59:13;;;;;;;;;;;;;;;14.54;83.10;101269.69;5046068;28;20398;-76
2022/06/06 01:01:40;;;;;;;;;;;;;;;14.54;82.81;101269.69;5047109;28;19947;-76
2022/06/06 01:04:05;;;;;;;;;;;;;;;14.53;83.19;101267.97;5044658;28;19950;-76
2022/06/06 01:06:33;;;;;;;;;;;;;;;14.51;83.20;101270.66;5042213;28;19920;-76
2022/06/06 01:08:59;;;;;;;;;;;;;;;14.52;83.20;101272.38;5047058;28;19916;-75
2022/06/06 01:11:24;;;;;;;;;;;;;;;14.53;83.16;101270.59;5043493;28;20299;-76
2022/06/06 01:13:51;;;;;;;;;;;;;;;14.51;83.19;101262.78;5045216;28;19927;-75
2022/06/06 01:16:35;;;;;;;;;;;;;;;14.53;83.37;101267.97;5042378;28;19921;-76
2022/06/06 01:19:19;;;;;;;;;;;;;;;14.53;83.34;101268.84;5043134;28;20291;-76
2022/06/06 01:21:50;;;;;;;;;;;;;;;14.53;83.34;101267.97;5043255;28;20008;-76
2022/06/06 01:24:32;;;;;;;;;;;;;;;14.53;83.32;101267.97;5042984;28;19917;-75
2022/06/06 01:27:01;;;;;;;;;;;;;;;14.54;83.43;101264.44;5045338;28;19919;-76
2022/06/06 01:29:28;;;;;;;;;;;;;;;14.55;83.27;101260.91;5042403;28;19912;-76
2022/06/06 01:32:01;;;;;;;;;;;;;;;14.54;83.29;101270.56;5043158;28;19912;-76
2022/06/06 01:34:29;;;;;;;;;;;;;;;14.54;83.41;101269.69;5060629;28;20436;-76
2022/06/06 01:36:55;;;;;;;;;;;;;;;14.53;83.52;101265.34;5041467;28;19960;-76
2022/06/06 01:39:22;;;;;;;;;;;;;;;14.53;83.51;101267.97;5044531;28;20021;-76
2022/06/06 01:41:50;;;;;;;;;;;;;;;14.52;83.37;101272.38;5045812;28;19923;-76
2022/06/06 01:44:34;;;;;;;;;;;;;;;14.52;83.45;101261.03;5045616;28;19935;-76
2022/06/06 01:47:03;;;;;;;;;;;;;;;14.51;83.28;101269.81;5044295;28;19912;-76
2022/06/06 01:49:29;;;;;;;;;;;;;;;14.48;83.40;101265.53;5040945;28;19920;-77
2022/06/06 01:52:01;;;;;;;;;;;;;;;14.49;83.25;101263.78;5043754;28;19978;-76
2022/06/06 01:54:27;;;;;;;;;;;;;;;14.49;83.45;101261.16;5042435;28;20421;-76
2022/06/06 01:56:53;;;;;;;;;;;;;;;14.47;83.33;101263.81;5040180;28;19920;-75
2022/06/06 01:59:18;;;;;;;;;;;;;;;14.46;83.38;101263.88;5045607;28;19921;-76
2022/06/06 02:01:44;;;;;;;;;;;;;;;14.46;83.47;101256.03;5043784;28;19935;-75
2022/06/06 02:04:10;;;;;;;;;;;;;;;14.45;83.42;101259.53;5047560;28;19966;-76
2022/06/06 02:06:38;;;;;;;;;;;;;;;14.44;83.41;101245.59;5040477;28;19959;-75
2022/06/06 02:09:03;;;;;;;;;;;;;;;14.44;83.52;101252.59;5042450;28;20027;-76
2022/06/06 02:11:28;;;;;;;;;;;;;;;14.42;83.63;101242.19;5045440;28;20043;-75
2022/06/06 02:13:53;;;;;;;;;;;;;;;14.44;83.58;101245.59;5041716;28;19921;-76
2022/06/06 02:16:18;;;;;;;;;;;;;;;14.45;83.69;101239.44;5048477;28;19912;-76
2022/06/06 02:18:44;;;;;;;;;;;;;;;14.47;83.65;101236.78;5045462;28;20364;-76
2022/06/06 02:21:09;;;;;;;;;;;;;;;14.47;83.52;101236.78;5043715;28;19940;-76
2022/06/06 02:23:35;;;;;;;;;;;;;;;14.47;83.52;101231.56;5042625;28;19927;-75
2022/06/06 02:26:00;;;;;;;;;;;;;;;14.46;83.44;101230.69;5045402;28;19917;-75
2022/06/06 02:28:25;;;;;;;;;;;;;;;14.45;83.62;101230.75;5043221;28;19920;-76
2022/06/06 02:30:51;;;;;;;;;;;;;;;14.46;83.55;101240.31;5041354;28;20003;-76
2022/06/06 02:33:16;;;;;;;;;;;;;;;14.46;83.49;101232.47;5043156;28;19913;-75
2022/06/06 02:35:42;;;;;;;;;;;;;;;14.45;83.60;101228.13;5041299;28;19927;-75
2022/06/06 02:38:08;;;;;;;;;;;;;;;14.45;83.72;101222.91;5044930;28;19913;-75
2022/06/06 02:40:33;;;;;;;;;;;;;;;14.46;83.65;101224.59;5043819;28;20276;-76
2022/06/06 02:42:59;;;;;;;;;;;;;;;14.46;83.78;101230.69;5042011;28;19931;-75
2022/06/06 02:45:24;;;;;;;;;;;;;;;14.45;83.61;101228.97;5042642;28;19920;-75
2022/06/06 02:47:51;;;;;;;;;;;;;;;14.45;83.70;101220.28;5041670;28;20017;-75
2022/06/06 02:50:17;;;;;;;;;;;;;;;14.45;83.74;101230.75;5040411;28;20003;-76
2022/06/06 02:52:43;;;;;;;;;;;;;;;14.45;83.77;101228.13;5043050;28;19912;-75
2022/06/06 02:55:09;;;;;;;;;;;;;;;14.44;83.80;101222.03;5046161;28;19931;-76
2022/06/06 02:57:36;;;;;;;;;;;;;;;14.45;83.73;101218.50;5043229;28;19943;-75
2022/06/06 03:00:03;;;;;;;;;;;;;;;14.45;83.70;101212.44;5042580;28;19982;-75
2022/06/06 03:02:28;;;;;;;;;;;;;;;14.46;83.80;101214.13;5041049;28;20343;-76
2022/06/06 03:04:53;;;;;;;;;;;;;;;14.45;83.59;101231.59;5041685;28;19924;-75
2022/06/06 03:07:37;;;;;;;;;;;;;;;14.43;83.78;101225.59;5040383;28;20004;-76
2022/06/06 03:10:08;;;;;;;;;;;;;;;14.44;83.77;101223.81;5042400;28;19966;-75
2022/06/06 03:12:52;;;;;;;;;;;;;;;14.43;83.75;101222.97;5042998;28;19916;-75
2022/06/06 03:15:30;;;;;;;;;;;;;;;14.41;83.71;101223.00;5041055;28;19923;-75
2022/06/06 03:21:00;;;;;;;;;;;;;;;14.39;83.79;101235.28;5041291;28;20436;-76
2022/06/06 03:23:31;;;;;;;;;;;;;;;14.38;83.73;101233.56;5038291;28;20291;-76
2022/06/06 03:26:16;;;;;;;;;;;;;;;14.38;83.75;101223.09;5040733;28;19924;-76
2022/06/06 03:29:01;;;;;;;;;;;;;;;14.38;83.63;101233.56;5041244;28;19935;-75
2022/06/06 03:31:34;;;;;;;;;;;;;;;14.37;83.69;101237.09;5040177;28;19920;-75
2022/06/06 03:34:06;;;;;;;;;;;;;;;14.36;83.60;101240.63;5039932;28;19927;-75
2022/06/06 03:36:51;;;;;;;;;;;;;;;14.36;83.61;101238.00;5040839;28;19983;-75
2022/06/06 03:39:16;;;;;;;;;;;;;;;14.36;83.63;101239.78;5039388;28;19913;-75
2022/06/06 03:42:02;;;;;;;;;;;;;;;14.35;83.55;101240.69;5040652;28;19920;-75
2022/06/06 03:44:37;;;;;;;;;;;;;;;14.35;83.42;101243.31;5037898;28;20437;-75
2022/06/06 03:47:05;;;;;;;;;;;;;;;14.32;83.33;101241.66;5042236;28;19920;-76
2022/06/06 03:49:40;;;;;;;;;;;;;;;14.33;83.42;101240.75;5041269;28;20270;-75
2022/06/06 03:52:14;;;;;;;;;;;;;;;14.32;83.27;101249.50;5038010;28;19921;-75
2022/06/06 03:54:43;;;;;;;;;;;;;;;14.31;83.06;101246.94;5038712;28;19928;-75
2022/06/06 03:57:11;;;;;;;;;;;;;;;14.30;83.21;101240.84;5042782;28;19921;-75
2022/06/06 03:59:39;;;;;;;;;;;;;;;14.29;83.05;101248.75;5040346;28;20015;-75
2022/06/06 04:02:05;;;;;;;;;;;;;;;14.27;83.14;101251.44;5040129;28;20003;-75
2022/06/06 04:04:31;;;;;;;;;;;;;;;14.25;82.99;101245.38;5039478;28;20427;-75
2022/06/06 04:06:58;;;;;;;;;;;;;;;14.22;82.82;101248.97;5043677;28;19924;-75
2022/06/06 04:09:24;;;;;;;;;;;;;;;14.20;82.81;101250.78;5048067;28;19920;-75
2022/06/06 04:11:59;;;;;;;;;;;;;;;14.21;82.68;101252.50;5042789;28;19920;-75
2022/06/06 04:14:28;;;;;;;;;;;;;;;14.19;82.52;101263.91;5044501;28;19983;-76
2022/06/06 04:16:59;;;;;;;;;;;;;;;14.19;82.42;101258.66;5043392;28;19920;-76
2022/06/06 04:19:36;;;;;;;;;;;;;;;14.17;82.38;101257.91;5043469;28;19920;-76
2022/06/06 04:22:11;;;;;;;;;;;;;;;14.16;82.30;101259.66;5045574;28;19920;-75
2022/06/06 04:24:36;;;;;;;;;;;;;;;14.15;82.24;101265.78;5044896;28;20445;-76
2022/06/06 04:27:07;;;;;;;;;;;;;;;14.14;82.10;101266.69;5044915;28;19951;-75
2022/06/06 04:29:44;;;;;;;;;;;;;;;14.14;82.02;101271.09;5046987;28;20555;-75
2022/06/06 04:32:15;;;;;;;;;;;;;;;14.11;81.96;101274.63;5041565;28;20324;-76
2022/06/06 04:34:59;;;;;;;;;;;;;;;14.10;82.03;101279.03;5044097;28;19940;-75
2022/06/06 04:37:43;;;;;;;;;;;;;;;14.08;81.89;101283.44;5044674;28;19920;-75
2022/06/06 04:40:24;;;;;;;;;;;;;;;14.05;81.81;101283.53;5044312;28;20616;-75
2022/06/06 04:42:59;;;;;;;;;;;;;;;14.04;81.81;101287.06;5044186;28;19921;-75
2022/06/06 04:45:31;;;;;;;;;;;;;;;14.02;81.71;101283.66;5046519;28;19919;-75
2022/06/06 04:47:58;;;;;;;;;;;;;;;13.99;81.50;101291.63;5046019;28;20046;-75
2022/06/06 04:50:24;;;;;;;;;;;;;;;13.96;81.48;101289.94;5043234;28;19967;-75
2022/06/06 04:52:52;;;;;;;;;;;;;;;13.95;81.46;101292.63;5043821;28;19924;-75
2022/06/06 04:55:19;;;;;;;;;;;;;;;13.92;81.16;101293.56;5043824;28;19967;-75
2022/06/06 04:57:46;;;;;;;;;;;;;;;13.91;81.15;101299.72;5041476;28;19917;-76
2022/06/06 05:00:12;;;;;;;;;;;;;;;13.91;80.71;101302.34;5043439;28;20019;-75
2022/06/06 05:02:38;;;;;;;;;;;;;;;13.89;80.28;101288.44;5043097;28;20387;-76
2022/06/06 05:05:05;;;;;;;;;;;;;;;13.85;80.15;101285.97;5044338;28;19913;-75
2022/06/06 05:07:51;;;;;;;;;;;;;;;13.83;80.24;101287.78;5047674;28;19947;-75
2022/06/06 05:10:16;;;;;;;;;;;;;;;13.81;80.04;101282.59;5046692;28;19913;-76
2022/06/06 05:12:51;;;;;;;;;;;;;;;13.83;79.83;101287.78;5047061;28;19963;-75
2022/06/06 05:15:26;;;;;;;;;;;;;;;13.83;79.47;101285.19;5046627;28;19986;-75
2022/06/06 05:18:02;;;;;;;;;;;;;;;13.80;79.44;101294.84;5043783;28;19996;-75
2022/06/06 05:20:33;;;;;;;;;;;;;;;13.81;79.01;101285.22;5046684;28;19913;-76
2022/06/06 05:23:16;;;;;;;;;;;;;;;13.81;79.10;101291.31;5043846;28;19920;-75
2022/06/06 05:26:03;;;;;;;;;;;;;;;13.83;79.14;101283.41;5049342;28;20395;-75
2022/06/06 05:28:47;;;;;;;;;;;;;;;13.87;78.95;101286.75;5043385;28;19920;-75
2022/06/06 05:31:13;;;;;;;;;;;;;;;13.88;78.81;101296.31;5040177;28;19959;-75
2022/06/06 05:33:45;;;;;;;;;;;;;;;13.90;78.77;101294.53;5040509;28;19960;-75
2022/06/06 05:36:15;;;;;;;;;;;;;;;13.89;78.54;101301.53;5043076;28;19921;-75
2022/06/06 05:38:48;;;;;;;;;;;;;;;13.89;78.48;101308.50;5039003;28;19920;-75
2022/06/06 05:41:19;;;;;;;;;;;;;;;13.96;78.16;101307.41;5041092;28;19920;-75
2022/06/06 05:43:57;;;;;;;;;;;;;;;13.96;77.82;101313.47;5042305;28;19913;-75
2022/06/06 05:46:43;;;;;;;;;;;;;;;13.97;77.85;101311.75;5044958;28;19920;-75
2022/06/06 05:49:08;;;;;;;;;;;;;;;14.00;77.68;101306.41;5041309;28;19928;-76
2022/06/06 05:51:39;;;;;;;;;;;;;;;14.01;77.78;101312.47;5044097;28;19913;-76
2022/06/06 05:54:05;;;;;;;;;;;;;;;14.02;77.60;101308.97;5046506;28;19924;-76
2022/06/06 05:56:49;;;;;;;;;;;;;;;14.05;77.61;101311.47;5046407;28;19919;-75
2022/06/06 05:59:34;;;;;;;;;;;;;;;14.09;77.41;101316.56;5045414;28;19913;-75
2022/06/06 06:02:19;;;;;;;;;;;;;;;14.14;77.40;101315.56;5048563;28;19917;-75
2022/06/06 06:04:59;;;;;;;;;;;;;;;14.19;76.95;101311.00;5048699;28;20019;-76
2022/06/06 06:10:15;;;;;;;;;;;;;;;14.19;76.55;101309.25;5334844;22;19924;-78
2022/06/06 06:12:59;;;;;;;;;;;;;;;14.21;76.50;101317.91;5043704;28;19912;-78
2022/06/06 06:15:38;;;;;;;;;;;;;;;14.19;76.42;101311.00;5044617;28;20286;-78
2022/06/06 06:18:08;;;;;;;;;;;;;;;14.19;76.50;101311.00;5043993;28;19947;-78
2022/06/06 06:20:36;;;;;;;;;;;;;;;14.22;76.12;101316.16;5032568;28;19913;-80
2022/06/06 06:23:03;;;;;;;;;;;;;;;14.24;75.90;101319.56;5025812;28;20374;-78
2022/06/06 06:25:31;;;;;;;;;;;;;;;14.23;75.88;101323.97;5025631;28;19948;-78
2022/06/06 06:28:01;;;;;;;;;;;;;;;14.27;75.61;101332.56;5028033;28;19913;-77
2022/06/06 06:30:31;;;;;;;;;;;;;;;14.29;75.69;101327.25;5023601;28;20017;-79
2022/06/06 06:33:09;;;;;;;;;;;;;;;14.30;75.22;101331.59;5026875;28;19912;-79
2022/06/06 06:35:34;;;;;;;;;;;;;;;14.28;75.28;101344.75;5027955;28;19918;-79
2022/06/06 06:37:59;;;;;;;;;;;;;;;14.31;75.21;101336.78;5029456;28;19917;-79
2022/06/06 06:40:32;;;;;;;;;;;;;;;14.33;75.10;101334.97;5026731;28;20324;-78
2022/06/06 06:43:20;;;;;;;;;;;;;;;14.33;75.02;101334.97;5022657;28;20635;-78
2022/06/06 06:45:50;;;;;;;;;;;;;;;14.34;74.68;101341.94;5026560;28;20093;-78
2022/06/06 06:48:21;;;;;;;;;;;;;;;14.36;74.79;101345.31;5023606;28;19921;-78
2022/06/06 06:51:05;;;;;;;;;;;;;;;14.44;74.76;101352.06;5025534;28;19927;-77
2022/06/06 06:53:45;;;;;;;;;;;;;;;14.47;74.44;101350.19;5024809;28;20283;-78
2022/06/06 06:56:29;;;;;;;;;;;;;;;14.52;74.15;101355.28;5021483;28;20298;-79
2022/06/06 06:59:10;;;;;;;;;;;;;;;14.56;74.08;101354.25;5019638;28;19921;-79
2022/06/06 07:08:32;;;;;;;;;;;;;;;14.60;73.84;101358.50;5020376;28;19917;-79
2022/06/06 07:10:25;;;;;;;;;;;;;;;14.65;73.51;101364.44;5020618;28;19927;-80
2022/06/06 07:13:08;;;;;;;;;;;;;;;14.64;73.46;101356.63;5019290;28;19920;-79
2022/06/06 07:15:43;;;;;;;;;;;;;;;14.64;72.84;101367.97;5021312;28;20371;-79
2022/06/06 07:18:10;;;;;;;;;;;;;;;14.61;72.93;101360.22;5021603;28;19967;-79
2022/06/06 07:20:38;;;;;;;;;;;;;;;14.63;72.69;101349.66;5020078;28;20813;-79
2022/06/06 07:23:05;;;;;;;;;;;;;;;14.66;72.80;101358.31;5019928;28;19917;-81
2022/06/06 07:25:37;;;;;;;;;;;;;;;14.69;72.69;101357.34;5024695;28;20888;-79
2022/06/06 07:28:02;;;;;;;;;;;;;;;14.75;72.49;101357.16;5020852;28;20627;-78
2022/06/06 07:30:29;;;;;;;;;;;;;;;14.86;72.59;101360.25;5016609;28;19927;-79
2022/06/06 07:33:08;;;;;;;;;;;;;;;14.96;72.19;101358.16;5022024;28;20360;-79
2022/06/06 07:35:51;;;;;;;;;;;;;;;15.02;71.87;101359.69;5019421;28;19936;-79
2022/06/06 07:38:24;;;;;;;;;;;;;;;15.09;70.81;101360.31;5020587;28;19927;-79
2022/06/06 07:40:52;;;;;;;;;;;;;;;15.12;70.33;101360.22;5024093;28;19927;-79
2022/06/06 07:43:17;;;;;;;;;;;;;;;15.14;69.46;101374.13;5024245;28;20493;-79
2022/06/06 07:45:51;;;;;;;;;;;;;;;15.10;69.32;101368.16;5023101;28;19916;-79
2022/06/06 07:48:38;;;;;;;;;;;;;;;15.10;68.93;101378.63;5024289;28;19940;-86
2022/06/06 07:51:20;;;;;;;;;;;;;;;15.11;69.18;101376.84;5026687;28;20336;-80
2022/06/06 07:53:46;;;;;;;;;;;;;;;15.16;69.03;101383.63;5023740;28;19927;-79
2022/06/06 07:56:30;;;;;;;;;;;;;;;15.21;68.91;101380.81;5024470;28;19917;-80
2022/06/06 07:58:58;;;;;;;;;;;;;;;15.26;68.78;101381.53;5026471;28;20015;-80
2022/06/06 08:01:24;;;;;;;;;;;;;;;15.29;68.62;101372.69;5027112;28;19921;-80
2022/06/06 08:03:50;;;;;;;;;;;;;;;15.33;68.43;101374.28;5026105;28;20405;-81
2022/06/06 08:06:15;;;;;;;;;;;;;;;15.37;68.50;101372.44;5024842;28;19920;-79
2022/06/06 08:08:50;;;;;;;;;;;;;;;15.41;68.20;101366.13;5026732;28;19928;-80
2022/06/06 08:11:34;;;;;;;;;;;;;;;15.46;68.20;101364.19;5026956;28;20390;-79
2022/06/06 08:14:20;;;;;;;;;;;;;;;15.50;68.20;101368.41;5025967;28;19924;-80
2022/06/06 08:17:04;;;;;;;;;;;;;;;15.57;67.94;101369.03;5022976;28;19923;-80
2022/06/06 08:19:30;;;;;;;;;;;;;;;15.58;67.03;101379.47;5024509;28;20349;-80
2022/06/06 08:21:56;;;;;;;;;;;;;;;15.49;66.93;101369.34;5022701;28;20162;-80
2022/06/06 08:24:23;;;;;;;;;;;;;;;15.44;66.89;101371.25;5021343;28;20469;-81
2022/06/06 08:26:50;;;;;;;;;;;;;;;15.39;66.94;101373.19;5026324;28;19921;-81
2022/06/06 08:29:16;;;;;;;;;;;;;;;15.40;67.20;101369.66;5024915;28;19978;-81
2022/06/06 08:31:41;;;;;;;;;;;;;;;15.43;67.18;101364.31;5023577;28;19925;-81
2022/06/06 08:34:07;;;;;;;;;;;;;;;15.46;67.13;101366.81;5024993;28;20375;-81
2022/06/06 08:36:47;;;;;;;;;;;;;;;15.48;67.04;101357.13;5025863;28;19984;-81
2022/06/06 08:39:19;;;;;;;;;;;;;;;15.47;67.13;101360.66;5024539;28;20390;-81
2022/06/06 08:41:57;;;;;;;;;;;;;;;15.48;66.51;101354.50;5025060;28;19939;-81
2022/06/06 08:44:27;;;;;;;;;;;;;;;15.46;66.66;101354.56;5023388;28;19923;-81
2022/06/06 08:47:18;;;;;;;;;;;;;;;15.52;66.67;101348.25;5021421;28;19999;-81
2022/06/06 08:52:27;;;;;;;;;;;;;;;15.69;66.91;101359.84;5020622;28;19924;-81
2022/06/06 08:55:13;;;;;;;;;;;;;;;15.76;66.30;101354.31;5021262;28;19960;-81
2022/06/06 08:57:38;;;;;;;;;;;;;;;15.83;66.36;101356.66;4992219;28;19921;-81
2022/06/06 09:00:09;;;;;;;;;;;;;;;15.90;66.15;101348.50;5021622;28;19928;-81
2022/06/06 09:02:52;;;;;;;;;;;;;;;15.97;65.49;101348.28;5022601;28;20398;-81
2022/06/06 09:05:20;;;;;;;;;;;;;;;15.93;65.37;101343.16;5024782;28;19923;-81
2022/06/06 09:07:54;;;;;;;;;;;;;;;15.87;65.82;101338.16;5020588;28;19920;-81
2022/06/06 09:10:34;;;;;;;;;;;;;;;15.88;65.81;101339.88;5019974;28;20435;-81
2022/06/06 09:12:59;;;;;;;;;;;;;;;15.96;65.54;101336.94;5023468;28;19921;-81
2022/06/06 09:15:43;;;;;;;;;;;;;;;16.04;64.96;101339.25;5023039;28;21232;-81
2022/06/06 09:18:21;;;;;;;;;;;;;;;16.12;64.40;101342.41;5022702;28;20333;-82
2022/06/06 09:21:11;;;;;;;;;;;;;;;16.14;63.73;101351.06;5023867;28;19955;-81
2022/06/06 09:23:51;;;;;;;;;;;;;;;16.15;63.62;101351.91;4997034;28;19951;-82
2022/06/06 09:26:19;;;;;;;;;;;;;;;16.20;63.31;101356.09;5018988;28;20053;-81
2022/06/06 09:29:03;;;;;;;;;;;;;;;16.22;62.66;101343.75;5023493;28;20024;-81
2022/06/06 09:31:46;;;;;;;;;;;;;;;16.20;62.69;101344.72;5023823;28;19955;-81
2022/06/06 09:34:24;;;;;;;;;;;;;;;16.16;62.40;101332.63;5020305;28;19952;-81
2022/06/06 09:37:06;;;;;;;;;;;;;;;16.08;62.46;101336.44;5020918;28;19917;-81
2022/06/06 09:39:32;;;;;;;;;;;;;;;16.00;62.61;101338.50;5022359;28;19925;-81
2022/06/06 09:42:19;;;;;;;;;;;;;;;15.95;62.44;101342.22;5023960;28;19920;-82
2022/06/06 09:44:49;;;;;;;;;;;;;;;15.88;63.20;101329.38;5022884;28;19924;-82
2022/06/06 09:47:15;;;;;;;;;;;;;;;15.86;63.34;101325.97;5022883;28;20035;-81
2022/06/06 09:49:59;;;;;;;;;;;;;;;15.85;63.41;101328.59;5021801;28;20007;-81
2022/06/06 09:52:39;;;;;;;;;;;;;;;15.83;63.49;101326.03;5025228;28;19927;-81
2022/06/06 10:00:41;;;;;;;;;;;;;;;16.13;63.37;101320.50;5023730;28;19962;-81
2022/06/06 10:03:06;;;;;;;;;;;;;;;16.31;62.44;101318.84;5021610;28;19916;-81
2022/06/06 10:05:31;;;;;;;;;;;;;;;16.45;61.35;101306.94;5017133;28;19924;-81
2022/06/06 10:07:59;;;;;;;;;;;;;;;16.60;61.21;101305.38;5019036;28;20019;-81
2022/06/06 10:10:33;;;;;;;;;;;;;;;16.76;60.45;101309.03;5020945;28;20416;-81
2022/06/06 10:12:59;;;;;;;;;;;;;;;16.90;59.22;101302.34;5021872;28;19940;-80
2022/06/06 10:15:27;;;;;;;;;;;;;;;16.94;59.04;101299.50;5022479;28;19928;-81
2022/06/06 10:17:55;;;;;;;;;;;;;;;16.94;58.93;101298.63;5019808;28;19924;-81
2022/06/06 10:20:29;;;;;;;;;;;;;;;16.92;59.23;101295.22;5018920;28;20387;-81
2022/06/06 10:23:13;;;;;;;;;;;;;;;16.93;59.60;101287.28;5023191;28;20360;-81
2022/06/06 10:26:07;;;;;;;;;;;;;;;16.94;59.43;101294.25;5020068;28;19924;-80
2022/06/06 10:28:38;;;;;;;;;;;;;;;16.96;58.77;101294.19;5002453;28;20008;-80
2022/06/06 10:31:13;;;;;;;;;;;;;;;16.91;58.84;101290.91;5022594;28;19921;-81
2022/06/06 10:33:47;;;;;;;;;;;;;;;16.92;59.07;101289.97;5021899;28;19924;-80
2022/06/06 10:36:12;;;;;;;;;;;;;;;16.91;58.88;101277.78;5023076;28;19917;-81
2022/06/06 10:38:44;;;;;;;;;;;;;;;16.90;58.96;101282.16;5020784;28;19920;-81
2022/06/06 10:41:15;;;;;;;;;;;;;;;16.89;58.78;101283.09;5018672;28;19917;-81
2022/06/06 10:43:58;;;;;;;;;;;;;;;16.99;58.05;101296.69;5015812;28;20068;-81
2022/06/06 10:46:29;;;;;;;;;;;;;;;17.05;58.91;101285.91;5016889;28;19917;-81
2022/06/06 10:49:00;;;;;;;;;;;;;;;17.19;58.02;101289.66;5017695;28;19921;-81
2022/06/06 10:51:37;;;;;;;;;;;;;;;17.26;58.32;101291.06;5017229;28;19913;-81
2022/06/06 10:54:21;;;;;;;;;;;;;;;17.34;58.04;101294.22;5017574;28;20528;-81
2022/06/06 10:57:25;;;;;;;;;;;;;;;17.38;58.63;101294.91;5018708;28;19921;-81
2022/06/06 11:00:05;;;;;;;;;;;;;;;17.45;58.31;101289.28;4975852;28;19992;-81
2022/06/06 11:02:31;;;;;;;;;;;;;;;17.52;56.92;101308.25;4976415;28;20007;-81
2022/06/06 11:05:05;;;;;;;;;;;;;;;17.50;56.41;101293.47;4997256;28;20367;-81
2022/06/06 11:07:42;;;;;;;;;;;;;;;17.56;56.19;101285.31;5019400;28;19920;-81
2022/06/06 11:10:07;;;;;;;;;;;;;;;17.63;56.92;101291.97;5021500;28;19917;-81
2022/06/06 11:12:41;;;;;;;;;;;;;;;17.62;56.35;101274.47;5023357;28;19923;-81
2022/06/06 11:15:06;;;;;;;;;;;;;;;17.58;57.29;101271.13;5021110;28;19921;-81
2022/06/06 11:17:34;;;;;;;;;;;;;;;17.60;57.25;101271.06;5022758;28;20525;-81
2022/06/06 11:20:05;;;;;;;;;;;;;;;17.63;57.17;101272.69;5024160;28;20612;-81
2022/06/06 11:22:31;;;;;;;;;;;;;;;17.66;56.84;101270.75;5022213;28;19928;-81
2022/06/06 11:24:59;;;;;;;;;;;;;;;17.68;56.77;101268.91;5023689;28;19920;-81
2022/06/06 11:27:35;;;;;;;;;;;;;;;17.65;56.76;101263.78;5019627;28;19954;-81
2022/06/06 11:30:17;;;;;;;;;;;;;;;17.75;57.07;101265.06;5024190;28;19931;-81
2022/06/06 11:33:01;;;;;;;;;;;;;;;17.95;56.35;101249.19;5023095;28;20054;-81
2022/06/06 11:35:47;;;;;;;;;;;;;;;18.09;55.14;101244.09;5026960;28;20020;-81
2022/06/06 11:38:28;;;;;;;;;;;;;;;18.21;54.46;101245.25;5026788;28;19921;-79
2022/06/06 11:41:03;;;;;;;;;;;;;;;18.27;53.81;101254.63;5027502;28;19917;-82
2022/06/06 11:43:47;;;;;;;;;;;;;;;18.35;53.23;101249.84;5023671;28;20082;-81
2022/06/06 11:46:31;;;;;;;;;;;;;;;18.45;54.20;101242.28;5022380;28;19921;-81
2022/06/06 11:48:59;;;;;;;;;;;;;;;18.47;53.79;101246.53;5003015;28;19928;-81
2022/06/06 11:51:35;;;;;;;;;;;;;;;18.40;54.40;101239.03;5024897;28;19917;-81
2022/06/06 11:54:09;;;;;;;;;;;;;;;18.42;54.71;101248.56;5023674;28;19932;-81
2022/06/06 11:56:36;;;;;;;;;;;;;;;18.45;53.13;101252.81;5023333;28;19921;-81
2022/06/06 11:59:04;;;;;;;;;;;;;;;18.28;53.87;101251.06;5024561;28;19923;-79
2022/06/06 12:01:29;;;;;;;;;;;;;;;18.12;54.31;101261.53;5023461;28;20338;-79
2022/06/06 12:04:10;;;;;;;;;;;;;;;18.03;53.25;101266.34;5023121;28;19927;-78
2022/06/06 12:06:35;;;;;;;;;;;;;;;17.90;53.42;101263.44;5026940;28;19944;-79
2022/06/06 12:09:06;;;;;;;;;;;;;;;17.80;52.76;101261.34;5028624;28;19967;-79
2022/06/06 12:11:35;;;;;;;;;;;;;;;17.79;52.95;101264.88;5027663;28;19921;-79
2022/06/06 12:14:14;;;;;;;;;;;;;;;17.75;52.99;101267.69;5026978;28;19974;-79
2022/06/06 12:16:39;;;;;;;;;;;;;;;17.72;53.60;101274.88;5027251;28;20371;-79
2022/06/06 12:19:34;;;;;;;;;;;;;;;17.70;53.60;101271.47;5029911;28;19936;-79
2022/06/06 12:22:20;;;;;;;;;;;;;;;17.67;53.60;101272.47;4975291;28;20387;-79
2022/06/06 12:27:16;;;;;;;;;;;;;;;17.60;54.03;101264.03;5120415;22;20349;-74
2022/06/06 12:29:44;;;;;;;;;;;;;;;17.57;54.41;101260.69;5047618;28;20007;-74
2022/06/06 12:32:21;;;;;;;;;;;;;;;17.48;54.61;101267.25;5048117;28;19944;-74
2022/06/06 12:34:54;;;;;;;;;;;;;;;17.42;54.05;101278.06;5048169;28;19920;-74
2022/06/06 12:37:31;;;;;;;;;;;;;;;17.40;54.06;101275.53;5047233;28;20440;-74
2022/06/06 12:40:03;;;;;;;;;;;;;;;17.47;54.21;101269.94;5047648;28;20453;-74
2022/06/06 12:42:31;;;;;;;;;;;;;;;17.52;54.35;101265.31;5048631;28;20007;-74
2022/06/06 12:45:13;;;;;;;;;;;;;;;17.56;54.73;101253.72;5048567;28;19921;-74
2022/06/06 12:47:58;;;;;;;;;;;;;;;17.57;54.50;101258.06;5048303;28;19923;-74
2022/06/06 12:50:36;;;;;;;;;;;;;;;17.56;54.39;101266.88;5019458;28;20259;-74
2022/06/06 12:53:16;;;;;;;;;;;;;;;17.49;54.41;101254.94;5047584;28;19916;-73
2022/06/06 12:58:34;;;;;;;;;;;;;;;17.35;54.42;101251.22;5110855;22;19939;-74
2022/06/06 13:04:10;;;;;;;;;;;;;;;17.27;54.72;101263.84;5044309;28;19978;-74
2022/06/06 13:07:03;;;;;;;;;;;;;;;17.20;54.61;101257.19;5043730;28;19920;-74
2022/06/06 13:09:41;;;;;;;;;;;;;;;17.13;54.91;101249.59;5048481;28;19927;-74
2022/06/06 13:12:21;;;;;;;;;;;;;;;17.14;55.01;101261.81;5045064;28;19920;-74
2022/06/06 13:14:53;;;;;;;;;;;;;;;17.15;55.12;101254.78;5051644;28;19928;-74
2022/06/06 13:17:24;;;;;;;;;;;;;;;17.17;54.79;101258.16;5049395;28;19917;-75
2022/06/06 13:20:21;;;;;;;;;;;;;;;17.19;54.59;101260.75;5051776;28;19920;-74
2022/06/06 13:23:16;;;;;;;;;;;;;;;17.12;55.07;101270.69;4990784;28;19966;-74
2022/06/06 13:25:50;;;;;;;;;;;;;;;17.05;55.47;101270.13;5037463;28;19967;-74
2022/06/06 13:28:30;;;;;;;;;;;;;;;16.97;55.33;101282.75;5024072;28;19928;-73
2022/06/06 13:31:10;;;;;;;;;;;;;;;16.82;55.67;101285.13;5049223;28;20290;-75
2022/06/06 13:33:38;;;;;;;;;;;;;;;16.75;56.70;101286.31;5053854;28;19974;-74
2022/06/06 13:36:22;;;;;;;;;;;;;;;16.68;56.53;101282.28;5037851;28;20417;-75
2022/06/06 13:38:50;;;;;;;;;;;;;;;16.62;56.91;101287.78;5043626;28;20134;-75